sensor_id;sensor_type;location;lat;lon;timestamp;P1;durP1;ratioP1;P2;durP2;ratioP2
34505;SDS011;20748;42.632;23.198;2023-02-28T00:01:26;18.48;;;6.72;;
34505;SDS011;20748;42.632;23.198;2023-02-28T00:03:59;13.73;;;5.80;;
34505;SDS011;20748;42.632;23.198;2023-02-28T00:06:32;11.23;;;5.00;;
34505;SDS011;20748;42.632;23.198;2023-02-28T00:09:04;13.40;;;6.18;;
34505;SDS011;20748;42.632;23.198;2023-02-28T00:11:36;10.65;;;5.05;;
34505;SDS011;20748;42.632;23.198;2023-02-28T00:14:09;14.07;;;6.07;;
34505;SDS011;20748;42.632;23.198;2023-02-28T00:16:42;11.80;;;5.38;;
34505;SDS011;20748;42.632;23.198;2023-02-28T00:19:14;15.77;;;6.68;;
34505;SDS011;20748;42.632;23.198;2023-02-28T00:21:47;15.55;;;6.00;;
34505;SDS011;20748;42.632;23.198;2023-02-28T00:24:19;14.05;;;5.43;;
34505;SDS011;20748;42.632;23.198;2023-02-28T00:26:52;14.15;;;5.43;;
34505;SDS011;20748;42.632;23.198;2023-02-28T00:29:24;13.35;;;5.82;;
34505;SDS011;20748;42.632;23.198;2023-02-28T00:31:57;13.13;;;5.65;;
34505;SDS011;20748;42.632;23.198;2023-02-28T00:34:30;11.48;;;5.40;;
34505;SDS011;20748;42.632;23.198;2023-02-28T00:37:02;10.90;;;4.85;;
34505;SDS011;20748;42.632;23.198;2023-02-28T00:39:37;14.85;;;5.88;;
34505;SDS011;20748;42.632;23.198;2023-02-28T00:42:10;14.82;;;6.40;;
34505;SDS011;20748;42.632;23.198;2023-02-28T00:44:43;17.17;;;6.32;;
34505;SDS011;20748;42.632;23.198;2023-02-28T00:47:17;13.07;;;5.82;;
34505;SDS011;20748;42.632;23.198;2023-02-28T00:49:49;39.17;;;8.52;;
34505;SDS011;20748;42.632;23.198;2023-02-28T00:52:22;20.77;;;7.15;;
34505;SDS011;20748;42.632;23.198;2023-02-28T00:54:54;22.02;;;7.72;;
34505;SDS011;20748;42.632;23.198;2023-02-28T00:57:27;13.25;;;5.55;;
34505;SDS011;20748;42.632;23.198;2023-02-28T00:59:59;14.15;;;7.18;;
34505;SDS011;20748;42.632;23.198;2023-02-28T01:02:32;14.90;;;5.45;;
34505;SDS011;20748;42.632;23.198;2023-02-28T01:05:05;13.68;;;5.00;;
34505;SDS011;20748;42.632;23.198;2023-02-28T01:07:38;8.35;;;4.43;;
34505;SDS011;20748;42.632;23.198;2023-02-28T01:10:11;12.05;;;4.32;;
34505;SDS011;20748;42.632;23.198;2023-02-28T01:12:43;11.80;;;4.72;;
34505;SDS011;20748;42.632;23.198;2023-02-28T01:15:16;8.50;;;3.75;;
34505;SDS011;20748;42.632;23.198;2023-02-28T01:17:50;12.43;;;4.95;;
34505;SDS011;20748;42.632;23.198;2023-02-28T01:20:22;12.52;;;6.32;;
34505;SDS011;20748;42.632;23.198;2023-02-28T01:22:55;12.68;;;5.60;;
34505;SDS011;20748;42.632;23.198;2023-02-28T01:25:28;14.57;;;5.50;;
34505;SDS011;20748;42.632;23.198;2023-02-28T01:28:00;13.05;;;5.97;;
34505;SDS011;20748;42.632;23.198;2023-02-28T01:30:33;12.68;;;5.65;;
34505;SDS011;20748;42.632;23.198;2023-02-28T01:33:06;16.73;;;6.80;;
34505;SDS011;20748;42.632;23.198;2023-02-28T01:35:38;20.58;;;5.75;;
34505;SDS011;20748;42.632;23.198;2023-02-28T01:38:11;22.33;;;6.82;;
34505;SDS011;20748;42.632;23.198;2023-02-28T01:40:53;16.40;;;5.50;;
34505;SDS011;20748;42.632;23.198;2023-02-28T01:43:26;22.65;;;6.20;;
34505;SDS011;20748;42.632;23.198;2023-02-28T01:46:00;19.60;;;6.00;;
34505;SDS011;20748;42.632;23.198;2023-02-28T01:48:34;15.77;;;5.50;;
34505;SDS011;20748;42.632;23.198;2023-02-28T01:51:11;13.63;;;5.43;;
34505;SDS011;20748;42.632;23.198;2023-02-28T01:53:47;22.75;;;5.65;;
34505;SDS011;20748;42.632;23.198;2023-02-28T01:56:24;29.92;;;7.60;;
34505;SDS011;20748;42.632;23.198;2023-02-28T01:59:00;29.63;;;6.68;;
34505;SDS011;20748;42.632;23.198;2023-02-28T02:01:34;30.23;;;7.47;;
34505;SDS011;20748;42.632;23.198;2023-02-28T02:04:07;40.88;;;8.68;;
34505;SDS011;20748;42.632;23.198;2023-02-28T02:06:40;27.73;;;8.07;;
34505;SDS011;20748;42.632;23.198;2023-02-28T02:09:16;44.85;;;8.00;;
34505;SDS011;20748;42.632;23.198;2023-02-28T02:11:48;31.58;;;7.32;;
34505;SDS011;20748;42.632;23.198;2023-02-28T02:14:26;27.42;;;7.03;;
34505;SDS011;20748;42.632;23.198;2023-02-28T02:17:18;21.30;;;8.23;;
34505;SDS011;20748;42.632;23.198;2023-02-28T02:23:33;28.40;;;9.18;;
34505;SDS011;20748;42.632;23.198;2023-02-28T02:26:30;43.42;;;8.13;;
34505;SDS011;20748;42.632;23.198;2023-02-28T02:29:31;29.85;;;7.85;;
34505;SDS011;20748;42.632;23.198;2023-02-28T02:32:32;43.72;;;8.63;;
34505;SDS011;20748;42.632;23.198;2023-02-28T02:35:22;16.20;;;5.68;;
34505;SDS011;20748;42.632;23.198;2023-02-28T02:38:04;21.08;;;6.25;;
34505;SDS011;20748;42.632;23.198;2023-02-28T02:40:42;7.43;;;3.88;;
34505;SDS011;20748;42.632;23.198;2023-02-28T02:43:22;15.48;;;5.45;;
34505;SDS011;20748;42.632;23.198;2023-02-28T02:46:02;11.47;;;5.27;;
34505;SDS011;20748;42.632;23.198;2023-02-28T02:48:38;8.82;;;3.50;;
34505;SDS011;20748;42.632;23.198;2023-02-28T02:51:15;9.98;;;4.20;;
34505;SDS011;20748;42.632;23.198;2023-02-28T02:53:51;18.10;;;6.22;;
34505;SDS011;20748;42.632;23.198;2023-02-28T02:56:27;21.15;;;7.88;;
34505;SDS011;20748;42.632;23.198;2023-02-28T02:59:02;20.08;;;5.72;;
34505;SDS011;20748;42.632;23.198;2023-02-28T03:01:37;23.80;;;8.60;;
34505;SDS011;20748;42.632;23.198;2023-02-28T03:04:13;31.42;;;13.07;;
34505;SDS011;20748;42.632;23.198;2023-02-28T03:06:52;20.00;;;8.98;;
34505;SDS011;20748;42.632;23.198;2023-02-28T03:09:26;17.13;;;7.00;;
34505;SDS011;20748;42.632;23.198;2023-02-28T03:11:59;17.75;;;7.28;;
34505;SDS011;20748;42.632;23.198;2023-02-28T03:14:34;21.45;;;6.28;;
34505;SDS011;20748;42.632;23.198;2023-02-28T03:17:24;22.38;;;6.57;;
34505;SDS011;20748;42.632;23.198;2023-02-28T03:20:09;16.02;;;4.95;;
34505;SDS011;20748;42.632;23.198;2023-02-28T03:22:53;24.58;;;8.15;;
34505;SDS011;20748;42.632;23.198;2023-02-28T03:25:37;21.25;;;7.80;;
34505;SDS011;20748;42.632;23.198;2023-02-28T03:28:15;20.95;;;6.38;;
34505;SDS011;20748;42.632;23.198;2023-02-28T03:30:57;25.05;;;6.97;;
34505;SDS011;20748;42.632;23.198;2023-02-28T03:33:35;13.57;;;5.90;;
34505;SDS011;20748;42.632;23.198;2023-02-28T03:36:12;12.43;;;5.53;;
34505;SDS011;20748;42.632;23.198;2023-02-28T03:38:48;17.40;;;5.70;;
34505;SDS011;20748;42.632;23.198;2023-02-28T03:41:25;19.15;;;6.43;;
34505;SDS011;20748;42.632;23.198;2023-02-28T03:44:04;19.38;;;8.05;;
34505;SDS011;20748;42.632;23.198;2023-02-28T03:46:41;19.17;;;7.78;;
34505;SDS011;20748;42.632;23.198;2023-02-28T03:49:20;21.40;;;6.93;;
34505;SDS011;20748;42.632;23.198;2023-02-28T03:51:55;15.63;;;6.78;;
34505;SDS011;20748;42.632;23.198;2023-02-28T03:54:32;16.33;;;5.65;;
34505;SDS011;20748;42.632;23.198;2023-02-28T03:57:10;16.77;;;5.82;;
34505;SDS011;20748;42.632;23.198;2023-02-28T03:59:46;11.85;;;5.68;;
34505;SDS011;20748;42.632;23.198;2023-02-28T04:02:22;11.65;;;5.53;;
34505;SDS011;20748;42.632;23.198;2023-02-28T04:04:55;9.35;;;3.65;;
34505;SDS011;20748;42.632;23.198;2023-02-28T04:07:28;19.08;;;3.83;;
34505;SDS011;20748;42.632;23.198;2023-02-28T04:10:02;28.70;;;5.72;;
34505;SDS011;20748;42.632;23.198;2023-02-28T04:12:35;29.15;;;5.55;;
34505;SDS011;20748;42.632;23.198;2023-02-28T04:15:08;40.63;;;6.63;;
34505;SDS011;20748;42.632;23.198;2023-02-28T04:17:41;30.75;;;5.82;;
34505;SDS011;20748;42.632;23.198;2023-02-28T04:20:14;46.08;;;8.23;;
34505;SDS011;20748;42.632;23.198;2023-02-28T04:22:46;30.13;;;6.18;;
34505;SDS011;20748;42.632;23.198;2023-02-28T04:25:19;16.77;;;5.47;;
34505;SDS011;20748;42.632;23.198;2023-02-28T04:27:53;12.57;;;6.07;;
34505;SDS011;20748;42.632;23.198;2023-02-28T04:30:26;19.17;;;5.32;;
34505;SDS011;20748;42.632;23.198;2023-02-28T04:32:58;25.77;;;6.47;;
34505;SDS011;20748;42.632;23.198;2023-02-28T04:35:31;14.75;;;5.80;;
34505;SDS011;20748;42.632;23.198;2023-02-28T04:38:03;23.23;;;5.57;;
34505;SDS011;20748;42.632;23.198;2023-02-28T04:40:36;25.17;;;5.82;;
34505;SDS011;20748;42.632;23.198;2023-02-28T04:43:09;37.53;;;6.65;;
34505;SDS011;20748;42.632;23.198;2023-02-28T04:45:41;26.15;;;7.35;;
34505;SDS011;20748;42.632;23.198;2023-02-28T04:48:14;46.00;;;7.25;;
34505;SDS011;20748;42.632;23.198;2023-02-28T04:50:46;41.38;;;6.63;;
34505;SDS011;20748;42.632;23.198;2023-02-28T04:53:19;24.50;;;6.07;;
34505;SDS011;20748;42.632;23.198;2023-02-28T04:55:52;28.80;;;4.95;;
34505;SDS011;20748;42.632;23.198;2023-02-28T04:58:24;44.03;;;6.55;;
34505;SDS011;20748;42.632;23.198;2023-02-28T05:01:01;32.17;;;6.10;;
34505;SDS011;20748;42.632;23.198;2023-02-28T05:03:34;40.15;;;7.90;;
34505;SDS011;20748;42.632;23.198;2023-02-28T05:06:07;41.75;;;7.22;;
34505;SDS011;20748;42.632;23.198;2023-02-28T05:08:39;32.08;;;7.03;;
34505;SDS011;20748;42.632;23.198;2023-02-28T05:11:14;29.30;;;6.97;;
34505;SDS011;20748;42.632;23.198;2023-02-28T05:13:49;22.25;;;6.35;;
34505;SDS011;20748;42.632;23.198;2023-02-28T05:16:22;39.90;;;9.55;;
34505;SDS011;20748;42.632;23.198;2023-02-28T05:18:54;44.75;;;7.18;;
34505;SDS011;20748;42.632;23.198;2023-02-28T05:21:28;34.97;;;7.38;;
34505;SDS011;20748;42.632;23.198;2023-02-28T05:24:03;23.55;;;6.90;;
34505;SDS011;20748;42.632;23.198;2023-02-28T05:26:38;49.45;;;7.50;;
34505;SDS011;20748;42.632;23.198;2023-02-28T05:29:12;39.22;;;7.13;;
34505;SDS011;20748;42.632;23.198;2023-02-28T05:31:44;53.75;;;6.80;;
34505;SDS011;20748;42.632;23.198;2023-02-28T05:34:17;37.25;;;6.80;;
34505;SDS011;20748;42.632;23.198;2023-02-28T05:36:49;33.90;;;6.90;;
34505;SDS011;20748;42.632;23.198;2023-02-28T05:39:21;35.47;;;6.05;;
34505;SDS011;20748;42.632;23.198;2023-02-28T05:41:54;37.75;;;7.53;;
34505;SDS011;20748;42.632;23.198;2023-02-28T05:44:27;49.53;;;7.18;;
34505;SDS011;20748;42.632;23.198;2023-02-28T05:46:59;33.05;;;7.93;;
34505;SDS011;20748;42.632;23.198;2023-02-28T05:49:31;26.63;;;7.80;;
34505;SDS011;20748;42.632;23.198;2023-02-28T05:52:04;50.60;;;9.07;;
34505;SDS011;20748;42.632;23.198;2023-02-28T05:54:36;40.55;;;7.80;;
34505;SDS011;20748;42.632;23.198;2023-02-28T05:57:09;44.60;;;7.38;;
34505;SDS011;20748;42.632;23.198;2023-02-28T05:59:55;34.60;;;7.57;;
34505;SDS011;20748;42.632;23.198;2023-02-28T06:02:27;32.15;;;7.15;;
34505;SDS011;20748;42.632;23.198;2023-02-28T06:05:00;52.90;;;6.32;;
34505;SDS011;20748;42.632;23.198;2023-02-28T06:07:32;38.50;;;7.00;;
34505;SDS011;20748;42.632;23.198;2023-02-28T06:10:05;32.90;;;6.10;;
34505;SDS011;20748;42.632;23.198;2023-02-28T06:12:39;21.77;;;7.70;;
34505;SDS011;20748;42.632;23.198;2023-02-28T06:15:13;44.92;;;10.02;;
34505;SDS011;20748;42.632;23.198;2023-02-28T06:17:46;23.13;;;6.55;;
34505;SDS011;20748;42.632;23.198;2023-02-28T06:20:18;42.42;;;7.60;;
34505;SDS011;20748;42.632;23.198;2023-02-28T06:22:51;43.97;;;7.75;;
34505;SDS011;20748;42.632;23.198;2023-02-28T06:25:25;41.63;;;7.50;;
34505;SDS011;20748;42.632;23.198;2023-02-28T06:27:59;51.08;;;8.15;;
34505;SDS011;20748;42.632;23.198;2023-02-28T06:30:32;35.53;;;8.25;;
34505;SDS011;20748;42.632;23.198;2023-02-28T06:33:05;54.50;;;8.32;;
34505;SDS011;20748;42.632;23.198;2023-02-28T06:35:37;32.33;;;7.47;;
34505;SDS011;20748;42.632;23.198;2023-02-28T06:38:09;63.25;;;9.85;;
34505;SDS011;20748;42.632;23.198;2023-02-28T06:40:42;61.55;;;8.98;;
34505;SDS011;20748;42.632;23.198;2023-02-28T06:43:15;63.10;;;9.70;;
34505;SDS011;20748;42.632;23.198;2023-02-28T06:45:48;51.95;;;7.80;;
34505;SDS011;20748;42.632;23.198;2023-02-28T06:48:20;35.75;;;8.77;;
34505;SDS011;20748;42.632;23.198;2023-02-28T06:51:00;29.30;;;5.75;;
34505;SDS011;20748;42.632;23.198;2023-02-28T06:53:33;33.15;;;9.30;;
34505;SDS011;20748;42.632;23.198;2023-02-28T06:56:07;29.45;;;7.70;;
34505;SDS011;20748;42.632;23.198;2023-02-28T06:58:45;39.33;;;9.85;;
34505;SDS011;20748;42.632;23.198;2023-02-28T07:01:18;30.83;;;8.98;;
34505;SDS011;20748;42.632;23.198;2023-02-28T07:03:51;46.33;;;9.98;;
34505;SDS011;20748;42.632;23.198;2023-02-28T07:06:24;37.58;;;10.80;;
34505;SDS011;20748;42.632;23.198;2023-02-28T07:08:56;35.58;;;8.73;;
34505;SDS011;20748;42.632;23.198;2023-02-28T07:11:29;42.78;;;10.40;;
34505;SDS011;20748;42.632;23.198;2023-02-28T07:14:02;52.78;;;15.15;;
34505;SDS011;20748;42.632;23.198;2023-02-28T07:16:35;37.88;;;12.38;;
34505;SDS011;20748;42.632;23.198;2023-02-28T07:19:07;66.25;;;10.75;;
34505;SDS011;20748;42.632;23.198;2023-02-28T07:21:40;77.43;;;13.50;;
34505;SDS011;20748;42.632;23.198;2023-02-28T07:24:12;99.80;;;13.10;;
34505;SDS011;20748;42.632;23.198;2023-02-28T07:26:47;86.05;;;15.60;;
34505;SDS011;20748;42.632;23.198;2023-02-28T07:29:20;32.65;;;10.68;;
34505;SDS011;20748;42.632;23.198;2023-02-28T07:31:52;66.38;;;12.93;;
34505;SDS011;20748;42.632;23.198;2023-02-28T07:34:25;73.72;;;12.82;;
34505;SDS011;20748;42.632;23.198;2023-02-28T07:36:57;73.43;;;15.98;;
34505;SDS011;20748;42.632;23.198;2023-02-28T07:39:30;87.25;;;14.60;;
34505;SDS011;20748;42.632;23.198;2023-02-28T07:42:03;93.75;;;15.32;;
34505;SDS011;20748;42.632;23.198;2023-02-28T07:44:38;70.32;;;12.35;;
34505;SDS011;20748;42.632;23.198;2023-02-28T07:47:11;43.42;;;15.98;;
34505;SDS011;20748;42.632;23.198;2023-02-28T07:49:44;63.15;;;13.55;;
34505;SDS011;20748;42.632;23.198;2023-02-28T07:52:17;59.35;;;17.45;;
34505;SDS011;20748;42.632;23.198;2023-02-28T07:54:49;78.32;;;15.50;;
34505;SDS011;20748;42.632;23.198;2023-02-28T07:57:22;47.65;;;16.80;;
34505;SDS011;20748;42.632;23.198;2023-02-28T07:59:55;42.80;;;12.60;;
34505;SDS011;20748;42.632;23.198;2023-02-28T08:02:27;58.08;;;10.98;;
34505;SDS011;20748;42.632;23.198;2023-02-28T08:04:59;50.15;;;11.85;;
34505;SDS011;20748;42.632;23.198;2023-02-28T08:07:32;37.67;;;10.77;;
34505;SDS011;20748;42.632;23.198;2023-02-28T08:10:05;76.60;;;13.45;;
34505;SDS011;20748;42.632;23.198;2023-02-28T08:12:40;49.22;;;12.68;;
34505;SDS011;20748;42.632;23.198;2023-02-28T08:15:13;55.90;;;13.38;;
34505;SDS011;20748;42.632;23.198;2023-02-28T08:17:45;55.17;;;14.77;;
34505;SDS011;20748;42.632;23.198;2023-02-28T08:20:17;54.83;;;13.63;;
34505;SDS011;20748;42.632;23.198;2023-02-28T08:22:50;39.78;;;10.77;;
34505;SDS011;20748;42.632;23.198;2023-02-28T08:25:22;51.65;;;12.63;;
34505;SDS011;20748;42.632;23.198;2023-02-28T08:27:55;27.13;;;9.48;;
34505;SDS011;20748;42.632;23.198;2023-02-28T08:30:28;26.38;;;9.25;;
34505;SDS011;20748;42.632;23.198;2023-02-28T08:33:00;30.15;;;11.32;;
34505;SDS011;20748;42.632;23.198;2023-02-28T08:35:35;28.90;;;10.93;;
34505;SDS011;20748;42.632;23.198;2023-02-28T08:38:08;30.88;;;11.10;;
34505;SDS011;20748;42.632;23.198;2023-02-28T08:40:40;23.70;;;11.13;;
34505;SDS011;20748;42.632;23.198;2023-02-28T08:43:12;23.52;;;10.63;;
34505;SDS011;20748;42.632;23.198;2023-02-28T08:45:46;39.67;;;15.05;;
34505;SDS011;20748;42.632;23.198;2023-02-28T08:48:18;28.77;;;11.95;;
34505;SDS011;20748;42.632;23.198;2023-02-28T08:50:57;28.15;;;10.52;;
34505;SDS011;20748;42.632;23.198;2023-02-28T08:53:38;26.23;;;10.05;;
34505;SDS011;20748;42.632;23.198;2023-02-28T08:56:12;36.33;;;16.40;;
34505;SDS011;20748;42.632;23.198;2023-02-28T08:58:46;22.15;;;10.80;;
34505;SDS011;20748;42.632;23.198;2023-02-28T09:01:22;25.17;;;10.40;;
34505;SDS011;20748;42.632;23.198;2023-02-28T09:03:56;34.80;;;14.80;;
34505;SDS011;20748;42.632;23.198;2023-02-28T09:06:29;32.75;;;11.70;;
34505;SDS011;20748;42.632;23.198;2023-02-28T09:09:02;34.08;;;12.00;;
34505;SDS011;20748;42.632;23.198;2023-02-28T09:11:37;29.60;;;10.60;;
34505;SDS011;20748;42.632;23.198;2023-02-28T09:14:09;39.63;;;12.43;;
34505;SDS011;20748;42.632;23.198;2023-02-28T09:16:43;31.35;;;11.77;;
34505;SDS011;20748;42.632;23.198;2023-02-28T09:19:15;32.15;;;11.38;;
34505;SDS011;20748;42.632;23.198;2023-02-28T09:21:47;38.67;;;11.73;;
34505;SDS011;20748;42.632;23.198;2023-02-28T09:24:20;52.95;;;13.35;;
34505;SDS011;20748;42.632;23.198;2023-02-28T09:26:52;42.40;;;11.68;;
34505;SDS011;20748;42.632;23.198;2023-02-28T09:29:35;29.85;;;12.77;;
34505;SDS011;20748;42.632;23.198;2023-02-28T09:32:08;36.67;;;12.70;;
34505;SDS011;20748;42.632;23.198;2023-02-28T09:34:40;36.22;;;12.57;;
34505;SDS011;20748;42.632;23.198;2023-02-28T09:37:13;28.25;;;11.57;;
34505;SDS011;20748;42.632;23.198;2023-02-28T09:39:45;39.08;;;12.70;;
34505;SDS011;20748;42.632;23.198;2023-02-28T09:42:20;43.55;;;15.23;;
34505;SDS011;20748;42.632;23.198;2023-02-28T09:44:57;36.85;;;12.50;;
34505;SDS011;20748;42.632;23.198;2023-02-28T09:47:33;41.97;;;14.75;;
34505;SDS011;20748;42.632;23.198;2023-02-28T09:50:12;36.70;;;12.48;;
34505;SDS011;20748;42.632;23.198;2023-02-28T09:52:51;32.42;;;11.73;;
34505;SDS011;20748;42.632;23.198;2023-02-28T09:55:27;30.40;;;15.40;;
34505;SDS011;20748;42.632;23.198;2023-02-28T09:58:14;28.30;;;12.13;;
34505;SDS011;20748;42.632;23.198;2023-02-28T10:00:56;31.00;;;14.48;;
34505;SDS011;20748;42.632;23.198;2023-02-28T10:03:36;39.30;;;13.25;;
34505;SDS011;20748;42.632;23.198;2023-02-28T10:06:12;35.78;;;14.13;;
34505;SDS011;20748;42.632;23.198;2023-02-28T10:08:50;39.47;;;16.08;;
34505;SDS011;20748;42.632;23.198;2023-02-28T10:11:30;30.55;;;13.27;;
34505;SDS011;20748;42.632;23.198;2023-02-28T10:14:06;35.00;;;15.07;;
34505;SDS011;20748;42.632;23.198;2023-02-28T10:16:45;36.92;;;13.70;;
34505;SDS011;20748;42.632;23.198;2023-02-28T10:19:25;34.45;;;14.27;;
34505;SDS011;20748;42.632;23.198;2023-02-28T10:22:05;39.10;;;11.95;;
34505;SDS011;20748;42.632;23.198;2023-02-28T10:24:44;32.70;;;12.75;;
34505;SDS011;20748;42.632;23.198;2023-02-28T10:27:19;33.85;;;13.88;;
34505;SDS011;20748;42.632;23.198;2023-02-28T10:29:53;27.60;;;13.05;;
34505;SDS011;20748;42.632;23.198;2023-02-28T10:32:27;40.67;;;15.10;;
34505;SDS011;20748;42.632;23.198;2023-02-28T10:35:10;40.80;;;15.38;;
34505;SDS011;20748;42.632;23.198;2023-02-28T10:37:48;30.05;;;13.95;;
34505;SDS011;20748;42.632;23.198;2023-02-28T10:40:27;26.98;;;12.07;;
34505;SDS011;20748;42.632;23.198;2023-02-28T10:43:03;27.92;;;13.00;;
34505;SDS011;20748;42.632;23.198;2023-02-28T10:45:36;39.38;;;14.85;;
34505;SDS011;20748;42.632;23.198;2023-02-28T10:48:25;34.13;;;14.80;;
34505;SDS011;20748;42.632;23.198;2023-02-28T10:51:02;26.20;;;12.65;;
34505;SDS011;20748;42.632;23.198;2023-02-28T10:53:37;35.47;;;15.38;;
34505;SDS011;20748;42.632;23.198;2023-02-28T10:56:31;37.80;;;14.15;;
34505;SDS011;20748;42.632;23.198;2023-02-28T10:59:20;35.22;;;13.35;;
34505;SDS011;20748;42.632;23.198;2023-02-28T11:01:59;29.58;;;12.82;;
34505;SDS011;20748;42.632;23.198;2023-02-28T11:04:33;28.48;;;12.00;;
34505;SDS011;20748;42.632;23.198;2023-02-28T11:07:16;33.78;;;13.23;;
34505;SDS011;20748;42.632;23.198;2023-02-28T11:09:54;33.72;;;13.23;;
34505;SDS011;20748;42.632;23.198;2023-02-28T11:12:36;28.55;;;12.52;;
34505;SDS011;20748;42.632;23.198;2023-02-28T11:15:24;22.05;;;9.90;;
34505;SDS011;20748;42.632;23.198;2023-02-28T11:17:59;25.90;;;12.05;;
34505;SDS011;20748;42.632;23.198;2023-02-28T11:20:33;23.60;;;11.10;;
34505;SDS011;20748;42.632;23.198;2023-02-28T11:23:10;22.58;;;10.02;;
34505;SDS011;20748;42.632;23.198;2023-02-28T11:25:47;16.15;;;7.53;;
34505;SDS011;20748;42.632;23.198;2023-02-28T11:28:26;15.13;;;7.43;;
34505;SDS011;20748;42.632;23.198;2023-02-28T11:31:02;19.77;;;7.22;;
34505;SDS011;20748;42.632;23.198;2023-02-28T11:33:40;12.75;;;6.05;;
34505;SDS011;20748;42.632;23.198;2023-02-28T11:36:17;22.00;;;7.30;;
34505;SDS011;20748;42.632;23.198;2023-02-28T11:38:53;24.05;;;6.95;;
34505;SDS011;20748;42.632;23.198;2023-02-28T11:41:30;22.70;;;7.35;;
34505;SDS011;20748;42.632;23.198;2023-02-28T11:44:21;14.82;;;6.18;;
34505;SDS011;20748;42.632;23.198;2023-02-28T11:47:04;13.85;;;6.72;;
34505;SDS011;20748;42.632;23.198;2023-02-28T11:49:44;16.80;;;5.75;;
34505;SDS011;20748;42.632;23.198;2023-02-28T11:52:24;15.85;;;7.97;;
34505;SDS011;20748;42.632;23.198;2023-02-28T11:55:12;16.42;;;6.28;;
34505;SDS011;20748;42.632;23.198;2023-02-28T11:57:52;14.07;;;5.78;;
34505;SDS011;20748;42.632;23.198;2023-02-28T12:00:45;12.75;;;6.97;;
34505;SDS011;20748;42.632;23.198;2023-02-28T12:03:46;14.13;;;6.07;;
34505;SDS011;20748;42.632;23.198;2023-02-28T12:06:31;17.58;;;6.43;;
34505;SDS011;20748;42.632;23.198;2023-02-28T12:09:13;22.88;;;7.47;;
34505;SDS011;20748;42.632;23.198;2023-02-28T12:12:02;16.88;;;6.20;;
34505;SDS011;20748;42.632;23.198;2023-02-28T12:14:46;12.45;;;6.78;;
34505;SDS011;20748;42.632;23.198;2023-02-28T12:17:39;14.23;;;6.22;;
34505;SDS011;20748;42.632;23.198;2023-02-28T12:20:24;13.00;;;5.63;;
34505;SDS011;20748;42.632;23.198;2023-02-28T12:23:07;14.40;;;6.45;;
34505;SDS011;20748;42.632;23.198;2023-02-28T12:25:55;14.00;;;5.43;;
34505;SDS011;20748;42.632;23.198;2023-02-28T12:28:36;21.17;;;7.22;;
34505;SDS011;20748;42.632;23.198;2023-02-28T12:31:14;18.73;;;6.70;;
34505;SDS011;20748;42.632;23.198;2023-02-28T12:33:51;16.20;;;5.15;;
34505;SDS011;20748;42.632;23.198;2023-02-28T12:36:26;15.32;;;5.65;;
34505;SDS011;20748;42.632;23.198;2023-02-28T12:39:00;14.68;;;5.43;;
34505;SDS011;20748;42.632;23.198;2023-02-28T12:41:39;15.25;;;5.90;;
34505;SDS011;20748;42.632;23.198;2023-02-28T12:44:17;11.95;;;5.43;;
34505;SDS011;20748;42.632;23.198;2023-02-28T12:46:54;15.82;;;6.45;;
34505;SDS011;20748;42.632;23.198;2023-02-28T12:49:33;11.85;;;4.55;;
34505;SDS011;20748;42.632;23.198;2023-02-28T12:52:10;16.63;;;5.53;;
34505;SDS011;20748;42.632;23.198;2023-02-28T12:54:48;11.75;;;5.40;;
34505;SDS011;20748;42.632;23.198;2023-02-28T12:57:27;14.55;;;4.57;;
34505;SDS011;20748;42.632;23.198;2023-02-28T13:00:11;11.85;;;6.05;;
34505;SDS011;20748;42.632;23.198;2023-02-28T13:02:53;10.52;;;5.35;;
34505;SDS011;20748;42.632;23.198;2023-02-28T13:09:01;17.02;;;5.47;;
34505;SDS011;20748;42.632;23.198;2023-02-28T13:11:40;19.77;;;6.53;;
34505;SDS011;20748;42.632;23.198;2023-02-28T13:14:21;13.60;;;5.72;;
34505;SDS011;20748;42.632;23.198;2023-02-28T13:17:02;18.88;;;6.25;;
34505;SDS011;20748;42.632;23.198;2023-02-28T13:19:43;19.27;;;5.18;;
34505;SDS011;20748;42.632;23.198;2023-02-28T13:22:18;10.90;;;4.75;;
34505;SDS011;20748;42.632;23.198;2023-02-28T13:24:52;17.67;;;6.90;;
34505;SDS011;20748;42.632;23.198;2023-02-28T13:27:33;14.68;;;6.95;;
34505;SDS011;20748;42.632;23.198;2023-02-28T13:33:21;14.30;;;6.18;;
34505;SDS011;20748;42.632;23.198;2023-02-28T13:36:09;11.15;;;5.53;;
34505;SDS011;20748;42.632;23.198;2023-02-28T13:38:54;13.82;;;6.30;;
34505;SDS011;20748;42.632;23.198;2023-02-28T13:41:44;14.15;;;5.63;;
34505;SDS011;20748;42.632;23.198;2023-02-28T13:44:19;21.27;;;7.88;;
34505;SDS011;20748;42.632;23.198;2023-02-28T13:50:18;11.60;;;5.53;;
34505;SDS011;20748;42.632;23.198;2023-02-28T13:52:57;12.85;;;5.93;;
34505;SDS011;20748;42.632;23.198;2023-02-28T13:55:48;12.73;;;5.60;;
34505;SDS011;20748;42.632;23.198;2023-02-28T13:58:38;15.40;;;5.43;;
34505;SDS011;20748;42.632;23.198;2023-02-28T14:01:16;14.52;;;4.65;;
34505;SDS011;20748;42.632;23.198;2023-02-28T14:04:08;12.35;;;4.95;;
34505;SDS011;20748;42.632;23.198;2023-02-28T14:06:58;9.45;;;4.32;;
34505;SDS011;20748;42.632;23.198;2023-02-28T14:09:32;9.98;;;4.35;;
34505;SDS011;20748;42.632;23.198;2023-02-28T14:15:27;12.20;;;5.07;;
34505;SDS011;20748;42.632;23.198;2023-02-28T14:18:22;10.80;;;4.13;;
34505;SDS011;20748;42.632;23.198;2023-02-28T14:21:01;13.20;;;5.72;;
34505;SDS011;20748;42.632;23.198;2023-02-28T14:23:45;11.10;;;5.25;;
34505;SDS011;20748;42.632;23.198;2023-02-28T14:26:54;10.40;;;4.43;;
34505;SDS011;20748;42.632;23.198;2023-02-28T14:32:45;10.23;;;4.50;;
34505;SDS011;20748;42.632;23.198;2023-02-28T14:38:12;10.77;;;5.18;;
34505;SDS011;20748;42.632;23.198;2023-02-28T14:40:49;14.75;;;5.10;;
34505;SDS011;20748;42.632;23.198;2023-02-28T14:43:25;13.23;;;5.65;;
34505;SDS011;20748;42.632;23.198;2023-02-28T14:45:59;14.52;;;5.40;;
34505;SDS011;20748;42.632;23.198;2023-02-28T14:48:33;13.95;;;5.20;;
34505;SDS011;20748;42.632;23.198;2023-02-28T14:51:07;11.30;;;5.22;;
34505;SDS011;20748;42.632;23.198;2023-02-28T14:53:41;13.35;;;4.93;;
34505;SDS011;20748;42.632;23.198;2023-02-28T14:56:18;9.27;;;4.30;;
34505;SDS011;20748;42.632;23.198;2023-02-28T14:58:54;11.52;;;4.60;;
34505;SDS011;20748;42.632;23.198;2023-02-28T15:01:28;9.77;;;4.38;;
34505;SDS011;20748;42.632;23.198;2023-02-28T15:04:03;15.25;;;5.68;;
34505;SDS011;20748;42.632;23.198;2023-02-28T15:06:37;10.70;;;4.47;;
34505;SDS011;20748;42.632;23.198;2023-02-28T15:09:10;9.70;;;4.57;;
34505;SDS011;20748;42.632;23.198;2023-02-28T15:11:47;21.98;;;7.18;;
34505;SDS011;20748;42.632;23.198;2023-02-28T15:14:21;13.95;;;4.90;;
34505;SDS011;20748;42.632;23.198;2023-02-28T15:16:55;13.68;;;4.60;;
34505;SDS011;20748;42.632;23.198;2023-02-28T15:19:32;12.05;;;4.93;;
34505;SDS011;20748;42.632;23.198;2023-02-28T15:22:11;12.18;;;4.97;;
34505;SDS011;20748;42.632;23.198;2023-02-28T15:24:48;10.55;;;4.75;;
34505;SDS011;20748;42.632;23.198;2023-02-28T15:27:25;11.60;;;4.65;;
34505;SDS011;20748;42.632;23.198;2023-02-28T15:30:00;11.00;;;4.32;;
34505;SDS011;20748;42.632;23.198;2023-02-28T15:32:38;11.02;;;4.63;;
34505;SDS011;20748;42.632;23.198;2023-02-28T15:35:18;8.50;;;4.20;;